createdAt,value
2022-10-22T06:25:16.696Z,5.50
2022-10-22T06:27:50.192Z,6.00
2022-10-22T06:30:18.567Z,10.70
2022-10-22T06:32:46.397Z,13.10
2022-10-22T06:35:14.292Z,13.70
2022-10-22T06:37:42.274Z,14.50
2022-10-22T06:40:11.053Z,18.30
2022-10-22T07:15:55.053Z,39.10
2022-10-22T07:18:23.421Z,17.80
2022-10-22T07:20:51.382Z,16.70
2022-10-22T07:23:19.227Z,18.10
2022-10-22T07:25:47.438Z,20.00
2022-10-22T07:28:15.360Z,19.80
2022-10-22T07:30:43.222Z,24.00
2022-10-22T07:33:11.547Z,23.00
2022-10-22T07:35:40.414Z,64.90
2022-10-22T07:38:09.439Z,21.80
2022-10-22T07:40:37.339Z,20.00
2022-10-22T07:43:05.755Z,25.40
2022-10-22T07:45:33.994Z,57.20
2022-10-22T07:48:02.362Z,42.00
2022-10-22T07:50:30.345Z,26.40
2022-10-22T07:52:58.508Z,30.10
2022-10-22T07:55:26.385Z,22.70
2022-10-22T07:57:54.229Z,26.30
2022-10-22T08:00:24.628Z,20.70
2022-10-22T08:02:53.587Z,22.40
2022-10-22T08:05:21.362Z,184.80
2022-10-22T08:07:49.175Z,154.70
2022-10-22T08:10:17.157Z,33.70
2022-10-22T08:12:45.170Z,23.70
2022-10-22T08:15:13.033Z,22.80
2022-10-22T08:17:41.044Z,18.10
2022-10-22T08:20:10.044Z,38.30
2022-10-22T08:22:37.968Z,23.60
2022-10-22T08:25:06.407Z,20.70
2022-10-22T08:27:34.211Z,16.90
2022-10-22T08:30:03.092Z,24.50
2022-10-22T08:32:31.591Z,119.30
2022-10-22T08:34:59.362Z,24.20
2022-10-22T08:37:27.550Z,19.10
2022-10-22T08:39:55.379Z,142.80
2022-10-22T08:43:00.162Z,26.70
2022-10-22T08:45:41.639Z,17.90
2022-10-22T08:48:44.861Z,15.70
2022-10-22T08:51:17.134Z,17.00
2022-10-22T08:54:15.699Z,15.50
2022-10-22T08:56:47.910Z,14.00
2022-10-22T08:59:39.139Z,16.00
2022-10-22T09:02:38.649Z,15.50
2022-10-22T09:05:45.550Z,26.40
2022-10-22T09:08:17.278Z,18.70
2022-10-22T09:10:53.247Z,70.20
2022-10-22T09:13:23.766Z,23.80
2022-10-22T09:15:57.631Z,49.20
2022-10-22T09:18:43.803Z,45.70
2022-10-22T09:21:38.883Z,18.50
2022-10-22T09:24:16.902Z,18.30
2022-10-22T09:26:44.878Z,19.60
2022-10-22T09:29:19.479Z,31.30
2022-10-22T09:31:47.392Z,25.40
2022-10-22T09:34:20.657Z,17.70
2022-10-22T09:36:58.437Z,13.70
2022-10-22T09:39:31.824Z,14.00
2022-10-22T09:42:00.225Z,18.40
2022-10-22T09:44:28.068Z,16.70
2022-10-22T09:46:56.000Z,19.10
2022-10-22T09:49:24.484Z,17.30
2022-10-22T09:51:57.816Z,16.20
2022-10-22T09:54:33.050Z,20.00
2022-10-22T09:57:22.367Z,17.30
2022-10-22T09:59:54.077Z,12.10
2022-10-22T10:02:38.130Z,11.10
2022-10-22T10:05:08.778Z,12.50
2022-10-22T10:07:37.216Z,11.00
2022-10-22T10:10:19.586Z,13.00
2022-10-22T10:13:24.915Z,16.00
2022-10-22T10:16:13.139Z,13.60
2022-10-22T10:19:02.289Z,11.30
2022-10-22T10:21:47.557Z,10.90
2022-10-22T10:24:50.588Z,12.10
2022-10-22T10:27:27.205Z,10.50
2022-10-22T10:30:06.213Z,10.30
2022-10-22T10:32:54.307Z,14.10
2022-10-22T10:35:38.992Z,10.20
2022-10-22T10:38:29.780Z,20.00
2022-10-22T10:41:04.368Z,15.80
2022-10-22T10:43:48.217Z,12.80
2022-10-22T10:46:33.504Z,10.70
2022-10-22T10:49:19.042Z,13.10
2022-10-22T10:51:54.611Z,11.00
2022-10-22T10:55:02.005Z,22.10
2022-10-22T10:57:41.877Z,10.70
2022-10-22T11:00:14.610Z,10.50
2022-10-22T11:03:00.427Z,9.90
2022-10-22T11:05:55.936Z,8.60
2022-10-22T11:08:37.352Z,9.80
2022-10-22T11:11:19.939Z,11.20
2022-10-22T11:14:00.392Z,11.00
2022-10-22T11:16:38.040Z,11.40
2022-10-22T11:19:49.841Z,9.30
2022-10-22T11:22:28.677Z,9.90
2022-10-22T11:25:00.412Z,10.70
2022-10-22T11:27:42.566Z,9.50
2022-10-22T11:30:19.794Z,9.00
2022-10-22T11:32:53.586Z,9.70
2022-10-22T11:35:31.837Z,9.20
2022-10-22T11:38:01.473Z,9.70
2022-10-22T11:40:29.284Z,8.50
2022-10-22T11:43:08.567Z,9.00
2022-10-22T11:45:42.190Z,14.40
2022-10-22T11:48:10.099Z,10.80
2022-10-22T11:50:55.102Z,9.70
2022-10-22T11:53:25.836Z,9.50
2022-10-22T11:55:59.873Z,13.10
2022-10-22T11:58:45.144Z,10.70
2022-10-22T12:01:13.003Z,9.20
2022-10-22T12:03:49.503Z,8.70
2022-10-22T12:06:23.412Z,8.00
2022-10-22T12:08:56.417Z,9.00
2022-10-22T12:11:36.541Z,7.90
2022-10-22T12:14:19.940Z,7.90
2022-10-22T12:16:58.147Z,7.60
2022-10-22T12:19:40.833Z,6.60
2022-10-22T12:22:37.882Z,7.30
2022-10-22T12:25:39.301Z,8.80
2022-10-22T12:28:12.944Z,7.90
2022-10-22T12:30:41.517Z,8.80
2022-10-22T12:33:22.923Z,9.30
2022-10-22T12:35:54.077Z,9.10
2022-10-22T12:38:24.321Z,7.90
2022-10-22T12:40:55.909Z,7.70
2022-10-22T12:43:29.429Z,9.40
2022-10-22T12:45:59.640Z,9.80
2022-10-22T12:48:30.794Z,9.00
2022-10-22T12:51:00.793Z,8.80
2022-10-22T12:53:37.893Z,7.60
2022-10-22T12:56:10.856Z,8.70
2022-10-22T12:58:40.966Z,8.20
2022-10-22T13:01:12.703Z,9.00
2022-10-22T13:03:44.852Z,10.00
2022-10-22T13:06:18.998Z,9.30
2022-10-22T13:09:02.130Z,9.40
2022-10-22T13:11:51.637Z,9.70
2022-10-22T13:14:29.262Z,10.60
2022-10-22T13:17:14.965Z,16.60
2022-10-22T13:19:55.133Z,11.30
2022-10-22T13:22:27.069Z,9.80
2022-10-22T13:24:59.952Z,8.70
2022-10-22T13:27:29.343Z,9.20
2022-10-22T13:30:01.017Z,9.50
2022-10-22T13:32:32.785Z,9.10
2022-10-22T13:35:04.478Z,10.70
2022-10-22T13:37:34.336Z,9.00
2022-10-22T13:40:02.161Z,10.40
2022-10-22T13:42:30.046Z,11.90
2022-10-22T13:44:57.940Z,11.50
2022-10-22T13:47:29.088Z,10.20
2022-10-22T13:49:59.647Z,10.80
2022-10-22T13:52:50.977Z,9.90
2022-10-22T13:55:22.863Z,10.70
2022-10-22T13:57:51.315Z,12.50
2022-10-22T14:00:21.374Z,12.40
2022-10-22T14:02:53.724Z,13.40
2022-10-22T14:05:21.846Z,12.60
2022-10-22T14:07:50.203Z,13.80
2022-10-22T14:10:23.744Z,12.80
2022-10-22T14:12:53.638Z,12.30
2022-10-22T14:15:24.231Z,13.10
2022-10-22T14:17:57.079Z,12.90
2022-10-22T14:20:28.641Z,14.00
2022-10-22T14:23:01.168Z,12.70
2022-10-22T14:25:31.612Z,14.30
2022-10-22T14:27:59.447Z,19.50
2022-10-22T14:30:29.756Z,15.20
2022-10-22T14:32:58.259Z,11.90
2022-10-22T14:35:26.208Z,13.90
2022-10-22T14:37:54.290Z,15.30
2022-10-22T14:40:22.183Z,13.30
2022-10-22T14:42:50.001Z,20.20
2022-10-22T14:45:22.318Z,49.30
2022-10-22T14:47:51.763Z,46.00
2022-10-22T14:50:19.748Z,25.00
2022-10-22T14:52:48.471Z,19.40
2022-10-22T14:55:18.706Z,17.30
2022-10-22T14:57:46.703Z,18.40
2022-10-22T15:00:17.279Z,22.80
2022-10-22T15:02:46.117Z,23.00
2022-10-22T15:05:15.379Z,22.70
2022-10-22T15:07:44.804Z,23.80
2022-10-22T15:10:12.776Z,50.10
2022-10-22T15:12:40.720Z,47.00
2022-10-22T15:15:09.089Z,58.50
2022-10-22T15:17:37.145Z,42.30
2022-10-22T15:20:05.897Z,34.90
2022-10-22T15:22:37.109Z,37.30
2022-10-22T15:25:09.588Z,28.20
2022-10-22T15:27:37.402Z,26.30
2022-10-22T15:30:06.966Z,37.70
2022-10-22T15:32:35.005Z,20.50
2022-10-22T15:35:03.206Z,26.00
2022-10-22T15:37:31.971Z,27.80
2022-10-22T15:40:00.701Z,24.70
2022-10-22T15:42:28.682Z,28.10
2022-10-22T15:45:00.128Z,24.00
2022-10-22T15:47:29.758Z,28.40
2022-10-22T15:49:58.197Z,38.90
2022-10-22T15:52:26.112Z,29.30
2022-10-22T15:54:54.349Z,30.80
2022-10-22T15:57:22.229Z,40.10
2022-10-22T15:59:51.943Z,47.10
2022-10-22T16:02:19.878Z,48.60
2022-10-22T16:04:48.125Z,53.50
2022-10-22T16:07:16.763Z,44.40
2022-10-22T16:09:45.266Z,45.70
2022-10-22T16:12:15.275Z,46.50
2022-10-22T16:14:46.715Z,46.50
2022-10-22T16:17:19.361Z,35.30
2022-10-22T16:19:48.420Z,57.50
2022-10-22T16:22:16.442Z,53.30
2022-10-22T16:24:44.320Z,45.20
2022-10-22T16:27:12.189Z,30.00
2022-10-22T16:29:40.692Z,41.70
2022-10-22T16:32:08.551Z,37.80
2022-10-22T16:34:36.391Z,38.90
2022-10-22T16:37:10.291Z,37.90
2022-10-22T16:39:38.497Z,38.90
2022-10-22T16:42:06.676Z,35.40
2022-10-22T16:44:34.472Z,32.10
2022-10-22T16:47:02.227Z,37.50
2022-10-22T16:49:30.110Z,36.80
2022-10-22T16:51:58.046Z,35.90
2022-10-22T16:54:25.937Z,34.50
2022-10-22T16:56:53.784Z,50.80
2022-10-22T16:59:21.715Z,70.60
2022-10-22T17:01:49.545Z,88.80
2022-10-22T17:04:17.531Z,49.10
2022-10-22T17:06:45.366Z,41.10
2022-10-22T17:09:13.771Z,65.00
2022-10-22T17:11:42.790Z,44.90
2022-10-22T17:14:12.829Z,114.50
2022-10-22T17:16:40.629Z,81.00
2022-10-22T17:19:10.907Z,61.80
2022-10-22T17:21:38.703Z,81.00
2022-10-22T17:24:06.601Z,54.30
2022-10-22T17:26:34.808Z,40.60
2022-10-22T17:29:03.798Z,40.10
2022-10-22T17:31:35.519Z,36.10
2022-10-22T17:34:06.082Z,26.70
2022-10-22T17:36:35.968Z,30.90
2022-10-22T17:39:07.016Z,35.30
2022-10-22T17:41:36.813Z,41.80
2022-10-22T17:44:09.301Z,37.60
2022-10-22T17:46:37.799Z,61.70
2022-10-22T17:49:12.592Z,54.30
2022-10-22T17:51:40.923Z,64.40
2022-10-22T17:54:10.073Z,58.50
2022-10-22T17:56:40.333Z,64.50
2022-10-22T17:59:11.738Z,42.00
2022-10-22T18:01:45.423Z,33.90
2022-10-22T18:04:16.208Z,33.70
2022-10-22T18:06:46.222Z,28.70
2022-10-22T18:09:18.491Z,47.70
2022-10-22T18:11:49.988Z,46.60
2022-10-22T18:14:20.201Z,45.80
2022-10-22T18:16:49.016Z,51.40
2022-10-22T18:19:23.059Z,60.10
2022-10-22T18:21:50.952Z,59.10
2022-10-22T18:24:19.037Z,33.80
2022-10-22T18:26:46.879Z,24.00
2022-10-22T18:29:18.062Z,22.90
2022-10-22T18:31:45.951Z,29.60
2022-10-22T18:34:16.599Z,37.80
2022-10-22T18:36:47.067Z,32.80
2022-10-22T18:39:15.702Z,45.90
2022-10-22T18:41:43.641Z,55.80
2022-10-22T18:44:14.323Z,84.60
2022-10-22T18:46:42.520Z,64.00
2022-10-22T18:49:18.307Z,36.00
2022-10-22T18:51:48.730Z,30.90
2022-10-22T18:54:24.767Z,31.00
2022-10-22T18:59:25.874Z,40.30
2022-10-22T19:01:55.826Z,34.50
2022-10-22T19:04:23.792Z,31.80
2022-10-22T19:06:51.683Z,32.70
2022-10-22T19:09:19.790Z,53.80
2022-10-22T19:11:47.974Z,53.00
2022-10-22T19:14:19.629Z,57.60
2022-10-22T19:16:48.070Z,50.50
2022-10-22T19:19:19.513Z,53.20
2022-10-22T19:21:48.504Z,49.30
2022-10-22T19:24:18.612Z,53.50
2022-10-22T19:26:47.324Z,47.90
2022-10-22T19:29:20.068Z,49.30
2022-10-22T19:31:50.675Z,51.50
2022-10-22T19:34:19.898Z,50.60
2022-10-22T19:36:48.158Z,49.10
2022-10-22T19:39:17.136Z,50.10
2022-10-22T19:41:44.963Z,35.40
2022-10-22T19:44:12.879Z,37.70
2022-10-22T19:46:41.210Z,37.00
2022-10-22T19:49:09.953Z,36.00
2022-10-22T19:51:40.117Z,33.40
2022-10-22T19:54:18.374Z,34.90
2022-10-22T19:56:47.234Z,32.10
2022-10-22T19:59:16.168Z,32.60
2022-10-22T20:01:44.119Z,34.40
2022-10-22T20:04:16.728Z,40.80
2022-10-22T20:06:45.544Z,42.20
2022-10-22T20:09:13.759Z,40.10
2022-10-22T20:11:41.662Z,41.20
2022-10-22T20:14:09.436Z,47.00
2022-10-22T20:16:38.409Z,46.20
2022-10-22T20:19:07.699Z,49.90
2022-10-22T20:21:35.815Z,48.40
2022-10-22T20:24:04.511Z,46.50
2022-10-22T20:26:32.294Z,44.50
2022-10-22T20:29:00.371Z,45.10
2022-10-22T20:31:29.899Z,44.50
2022-10-22T20:33:59.525Z,44.90
2022-10-22T20:36:29.056Z,47.10
2022-10-22T20:39:08.962Z,45.10
2022-10-22T20:41:40.733Z,50.30
2022-10-22T20:44:13.583Z,48.50
2022-10-22T20:46:41.965Z,47.10
2022-10-22T20:49:13.766Z,45.30
2022-10-22T20:51:42.306Z,44.60
2022-10-22T20:54:10.532Z,45.10
2022-10-22T20:56:39.836Z,49.80
2022-10-22T20:59:11.140Z,52.40
2022-10-22T21:01:48.686Z,42.80
2022-10-22T21:04:18.136Z,42.80
2022-10-22T21:06:46.268Z,42.20
2022-10-22T21:09:15.077Z,40.80
2022-10-22T21:11:43.213Z,42.00
2022-10-22T21:14:12.536Z,42.60
2022-10-22T21:16:45.652Z,43.40
2022-10-22T21:19:13.447Z,43.60
2022-10-22T21:21:41.474Z,50.00
2022-10-22T21:24:09.579Z,49.70
2022-10-22T21:26:39.303Z,50.10
2022-10-22T21:29:08.119Z,45.00
2022-10-22T21:31:36.210Z,44.90
2022-10-22T21:34:04.233Z,55.00
2022-10-22T21:36:32.226Z,50.10
2022-10-22T21:39:02.225Z,51.90
2022-10-22T21:41:30.385Z,51.20
2022-10-22T21:43:58.568Z,53.50
2022-10-22T21:46:28.167Z,45.00
2022-10-22T21:48:59.327Z,41.70
2022-10-22T21:51:28.298Z,39.80
2022-10-22T21:53:56.373Z,37.00
2022-10-22T21:56:32.352Z,36.10
2022-10-22T21:59:01.591Z,37.70
2022-10-22T22:01:29.582Z,27.80
2022-10-22T22:03:58.098Z,28.50
2022-10-22T22:06:29.644Z,27.10
2022-10-22T22:09:00.087Z,25.60
2022-10-22T22:11:28.824Z,25.80
2022-10-22T22:13:57.998Z,27.00
2022-10-22T22:16:29.052Z,28.80
2022-10-22T22:19:00.283Z,29.90
2022-10-22T22:21:28.865Z,31.00
2022-10-22T22:23:58.431Z,30.50
2022-10-22T22:26:30.088Z,29.50
2022-10-22T22:28:59.775Z,29.10
2022-10-22T22:31:31.615Z,28.20
2022-10-22T22:34:10.967Z,29.60
2022-10-22T22:36:41.236Z,27.10
2022-10-22T22:39:15.970Z,26.90
2022-10-22T22:41:44.975Z,24.00
2022-10-22T22:44:13.599Z,25.70
2022-10-22T22:46:42.231Z,25.30
2022-10-22T22:49:10.641Z,24.10
2022-10-22T22:51:38.396Z,25.30
2022-10-22T22:54:06.199Z,24.90
2022-10-22T22:56:34.749Z,25.80
2022-10-22T22:59:03.898Z,26.80
2022-10-22T23:01:34.808Z,26.80
2022-10-22T23:04:12.784Z,27.30
2022-10-22T23:06:40.643Z,28.30
2022-10-22T23:09:10.972Z,25.90
2022-10-22T23:11:39.987Z,29.50
2022-10-22T23:14:11.569Z,23.70
2022-10-22T23:16:44.277Z,26.00
2022-10-22T23:19:18.169Z,29.10
2022-10-22T23:21:52.083Z,25.10
2022-10-22T23:24:23.588Z,24.80
2022-10-22T23:26:52.885Z,26.30
2022-10-22T23:29:26.922Z,27.00
2022-10-22T23:31:55.583Z,27.20
2022-10-22T23:34:25.252Z,28.50
2022-10-22T23:36:54.712Z,27.10
2022-10-22T23:39:27.832Z,26.80
2022-10-22T23:41:56.228Z,28.50
2022-10-22T23:44:25.020Z,24.80
2022-10-22T23:46:52.982Z,27.60
2022-10-22T23:49:21.115Z,26.30
2022-10-22T23:51:48.949Z,29.30
2022-10-22T23:54:18.440Z,29.40
2022-10-22T23:56:46.725Z,26.10
